Time;durP1;ratioP1;P1;durP2;ratioP2;P2;SDS_P1;SDS_P2;PMS_P1;PMS_P2;Temp;Humidity;BMP_temperature;BMP_pressure;BME280_temperature;BME280_humidity;BME280_pressure;Samples;Min_cycle;Max_cycle;Signal;HPM_P1;HPM_P2
2023/04/29 00:01:17;;;;;;;;;;;19.60;39.90;;;;;;5060985;28;19924;-64
2023/04/29 00:03:44;;;;;;;;;;;19.60;40.00;;;;;;5061515;28;20448;-63
2023/04/29 00:06:11;;;;;;;;;;;19.60;39.90;;;;;;5061730;28;20201;-62
2023/04/29 00:08:38;;;;;;;;;;;19.60;39.90;;;;;;5063287;28;19924;-64
2023/04/29 00:11:05;;;;;;;;;;;19.60;40.00;;;;;;5082261;28;19920;-63
2023/04/29 00:13:34;;;;;;;;;;;19.60;40.00;;;;;;5078688;28;20216;-63
2023/04/29 00:16:00;;;;;;;;;;;19.60;40.00;;;;;;5061223;28;19925;-63
2023/04/29 00:18:27;;;;;;;;;;;19.60;40.00;;;;;;5061025;28;20386;-63
2023/04/29 00:20:54;;;;;;;;;;;19.60;40.00;;;;;;5063540;28;19920;-64
2023/04/29 00:23:20;;;;;;;;;;;19.60;40.00;;;;;;5077977;28;19927;-63
2023/04/29 00:25:47;;;;;;;;;;;19.60;40.00;;;;;;5079613;28;20350;-64
2023/04/29 00:28:14;;;;;;;;;;;19.60;40.00;;;;;;5079405;28;20355;-64
2023/04/29 00:30:42;;;;;;;;;;;19.60;40.00;;;;;;5061561;28;19936;-63
2023/04/29 00:33:09;;;;;;;;;;;19.60;40.00;;;;;;5081199;28;19978;-63
2023/04/29 00:35:35;;;;;;;;;;;19.60;40.00;;;;;;5060644;28;19920;-63
2023/04/29 00:38:02;;;;;;;;;;;19.60;40.00;;;;;;5062405;28;19920;-64
2023/04/29 00:40:29;;;;;;;;;;;19.60;40.00;;;;;;5076698;28;19920;-63
2023/04/29 00:42:56;;;;;;;;;;;19.60;40.00;;;;;;5079153;28;20346;-63
2023/04/29 00:45:23;;;;;;;;;;;19.60;40.00;;;;;;5062107;28;19926;-62
2023/04/29 00:47:51;;;;;;;;;;;19.60;40.10;;;;;;5061463;28;20279;-63
2023/04/29 00:50:18;;;;;;;;;;;19.60;40.10;;;;;;5060132;28;20355;-61
2023/04/29 00:52:44;;;;;;;;;;;19.60;40.10;;;;;;5083581;28;19924;-63
2023/04/29 00:55:12;;;;;;;;;;;19.60;40.10;;;;;;5076768;28;19965;-62
2023/04/29 00:57:39;;;;;;;;;;;19.60;40.10;;;;;;5062536;28;19921;-63
2023/04/29 01:00:08;;;;;;;;;;;19.60;40.10;;;;;;5060683;28;19920;-63
2023/04/29 01:02:35;;;;;;;;;;;19.60;40.10;;;;;;5061264;28;20393;-63
2023/04/29 01:05:03;;;;;;;;;;;19.60;40.10;;;;;;5078480;28;19969;-63
2023/04/29 01:07:31;;;;;;;;;;;19.60;40.10;;;;;;5080734;28;19920;-62
2023/04/29 01:10:02;;;;;;;;;;;19.60;40.10;;;;;;5063183;28;19998;-63
2023/04/29 01:12:31;;;;;;;;;;;19.60;40.10;;;;;;5061207;28;19924;-63
2023/04/29 01:15:01;;;;;;;;;;;19.60;40.10;;;;;;5075927;28;19932;-62
2023/04/29 01:17:28;;;;;;;;;;;19.60;40.10;;;;;;5060637;28;20358;-61
2023/04/29 01:19:55;;;;;;;;;;;19.60;40.10;;;;;;5080093;28;20359;-62
2023/04/29 01:22:24;;;;;;;;;;;19.60;40.10;;;;;;5062869;28;19955;-63
2023/04/29 01:24:52;;;;;;;;;;;19.60;40.20;;;;;;5083562;28;19935;-63
2023/04/29 01:27:24;;;;;;;;;;;19.60;40.20;;;;;;5082157;28;20366;-63
2023/04/29 01:29:51;;;;;;;;;;;19.60;40.20;;;;;;5064016;28;20366;-63
2023/04/29 01:32:19;;;;;;;;;;;19.60;40.20;;;;;;5063260;28;19996;-64
2023/04/29 01:34:47;;;;;;;;;;;19.60;40.20;;;;;;5081710;28;19920;-63
2023/04/29 01:37:31;;;;;;;;;;;19.60;40.20;;;;;;5081735;28;20019;-64
2023/04/29 01:40:01;;;;;;;;;;;19.60;40.20;;;;;;5081083;28;19983;-64
2023/04/29 01:42:29;;;;;;;;;;;19.60;40.20;;;;;;5064252;28;19930;-63
2023/04/29 01:44:57;;;;;;;;;;;19.60;40.30;;;;;;5066072;28;19977;-63
2023/04/29 01:47:23;;;;;;;;;;;19.50;40.10;;;;;;5085734;28;19970;-63
2023/04/29 01:49:50;;;;;;;;;;;19.50;40.10;;;;;;5063393;28;19924;-63
2023/04/29 01:52:17;;;;;;;;;;;19.50;40.20;;;;;;5067375;28;19931;-63
2023/04/29 01:54:43;;;;;;;;;;;19.50;40.20;;;;;;5083063;28;20002;-64
2023/04/29 01:57:12;;;;;;;;;;;19.50;40.20;;;;;;5062920;28;19924;-65
2023/04/29 01:59:39;;;;;;;;;;;19.50;40.20;;;;;;5083060;28;19931;-62
2023/04/29 02:02:06;;;;;;;;;;;19.60;40.30;;;;;;5068647;28;20374;-63
2023/04/29 02:04:33;;;;;;;;;;;19.50;40.20;;;;;;5063756;28;20294;-63
2023/04/29 02:07:00;;;;;;;;;;;19.50;40.20;;;;;;5065591;28;19934;-62
2023/04/29 02:09:42;;;;;;;;;;;19.50;40.20;;;;;;5063148;28;19920;-62
2023/04/29 02:12:09;;;;;;;;;;;19.50;40.20;;;;;;5079681;28;19924;-63
2023/04/29 02:14:37;;;;;;;;;;;19.50;40.20;;;;;;5064759;28;19920;-62
2023/04/29 02:17:04;;;;;;;;;;;19.50;40.30;;;;;;5084852;28;19924;-63
2023/04/29 02:19:31;;;;;;;;;;;19.50;40.20;;;;;;5063812;28;20061;-63
2023/04/29 02:21:57;;;;;;;;;;;19.50;40.20;;;;;;5063109;28;20424;-63
2023/04/29 02:24:24;;;;;;;;;;;19.50;40.30;;;;;;5081234;28;19920;-63
2023/04/29 02:26:51;;;;;;;;;;;19.60;40.40;;;;;;5063537;28;20012;-64
2023/04/29 02:29:18;;;;;;;;;;;19.50;40.30;;;;;;5082896;28;19920;-62
2023/04/29 02:31:47;;;;;;;;;;;19.50;40.30;;;;;;5081418;28;19925;-63
2023/04/29 02:34:15;;;;;;;;;;;19.50;40.30;;;;;;5066294;28;19931;-63
2023/04/29 02:36:41;;;;;;;;;;;19.50;40.30;;;;;;5065100;28;19947;-64
2023/04/29 02:39:08;;;;;;;;;;;19.50;40.30;;;;;;5064154;28;20015;-63
2023/04/29 02:41:35;;;;;;;;;;;19.50;40.30;;;;;;5078000;28;19931;-63
2023/04/29 02:44:05;;;;;;;;;;;19.50;40.30;;;;;;5081671;28;19924;-64
2023/04/29 02:46:33;;;;;;;;;;;19.50;40.30;;;;;;5063715;28;19928;-63
2023/04/29 02:49:01;;;;;;;;;;;19.50;40.30;;;;;;5064750;28;19920;-64
2023/04/29 02:51:28;;;;;;;;;;;19.50;40.40;;;;;;5064533;28;19920;-63
2023/04/29 02:53:55;;;;;;;;;;;19.50;40.30;;;;;;5063959;28;20178;-63
2023/04/29 02:56:22;;;;;;;;;;;19.50;40.30;;;;;;5084846;28;19970;-64
2023/04/29 02:58:48;;;;;;;;;;;19.50;40.30;;;;;;5064566;28;19923;-63
2023/04/29 03:01:15;;;;;;;;;;;19.50;40.40;;;;;;5068566;28;19923;-64
2023/04/29 03:03:42;;;;;;;;;;;19.50;40.40;;;;;;5076879;28;19927;-63
2023/04/29 03:06:10;;;;;;;;;;;19.50;41.00;;;;;;5081897;28;19928;-63
2023/04/29 03:08:37;;;;;;;;;;;19.50;40.40;;;;;;5079141;28;19928;-62
2023/04/29 03:11:04;;;;;;;;;;;19.50;40.40;;;;;;5082609;28;19920;-63
2023/04/29 03:13:31;;;;;;;;;;;19.50;40.40;;;;;;5064604;28;19924;-64
2023/04/29 03:15:59;;;;;;;;;;;19.50;40.40;;;;;;5062438;28;19932;-64
2023/04/29 03:18:26;;;;;;;;;;;19.50;40.40;;;;;;5062697;28;20015;-63
2023/04/29 03:20:52;;;;;;;;;;;19.50;40.50;;;;;;5061189;28;19921;-63
2023/04/29 03:23:21;;;;;;;;;;;19.50;40.40;;;;;;5083086;28;19973;-63
2023/04/29 03:25:48;;;;;;;;;;;19.50;40.50;;;;;;5062240;28;19920;-64
2023/04/29 03:28:14;;;;;;;;;;;19.50;40.50;;;;;;5062881;28;19920;-64
2023/04/29 03:30:41;;;;;;;;;;;19.50;40.40;;;;;;5061669;28;19977;-62
2023/04/29 03:33:08;;;;;;;;;;;19.50;40.40;;;;;;5061685;28;19985;-62
2023/04/29 03:35:35;;;;;;;;;;;19.50;40.50;;;;;;5061861;28;20362;-64
2023/04/29 03:38:01;;;;;;;;;;;19.50;40.50;;;;;;5060936;28;19920;-63
2023/04/29 03:40:30;;;;;;;;;;;19.50;40.50;;;;;;5052256;28;20325;-63
2023/04/29 03:42:56;;;;;;;;;;;19.50;40.50;;;;;;5070870;28;20255;-63
2023/04/29 03:45:23;;;;;;;;;;;19.50;40.50;;;;;;5051370;28;19924;-63
2023/04/29 03:47:52;;;;;;;;;;;19.50;40.50;;;;;;5052395;28;19924;-62
2023/04/29 03:50:19;;;;;;;;;;;19.50;40.50;;;;;;5052852;28;20244;-64
2023/04/29 03:52:46;;;;;;;;;;;19.50;40.50;;;;;;5052506;28;20064;-63
2023/04/29 03:55:12;;;;;;;;;;;19.50;40.50;;;;;;5070650;28;19921;-65
2023/04/29 03:57:41;;;;;;;;;;;19.50;40.50;;;;;;5071865;28;19986;-64
2023/04/29 04:00:08;;;;;;;;;;;19.50;40.50;;;;;;5054201;28;19920;-64
2023/04/29 04:02:35;;;;;;;;;;;19.50;40.50;;;;;;5073643;28;19920;-63
2023/04/29 04:05:02;;;;;;;;;;;19.50;40.50;;;;;;5067964;28;20349;-63
2023/04/29 04:07:29;;;;;;;;;;;19.50;40.50;;;;;;5052543;28;19921;-63
2023/04/29 04:09:55;;;;;;;;;;;19.50;40.50;;;;;;5069104;28;19920;-64
2023/04/29 04:12:22;;;;;;;;;;;19.50;40.50;;;;;;5052446;28;19954;-63
2023/04/29 04:14:54;;;;;;;;;;;19.50;40.50;;;;;;5051849;28;19966;-62
2023/04/29 04:17:21;;;;;;;;;;;19.50;40.60;;;;;;5069096;28;19931;-62
2023/04/29 04:19:47;;;;;;;;;;;19.50;40.60;;;;;;5052029;28;19924;-63
2023/04/29 04:22:15;;;;;;;;;;;19.50;40.60;;;;;;5051950;28;19920;-63
2023/04/29 04:24:42;;;;;;;;;;;19.50;40.60;;;;;;5068549;28;19978;-63
2023/04/29 04:27:09;;;;;;;;;;;19.50;40.60;;;;;;5070054;28;19932;-63
2023/04/29 04:29:36;;;;;;;;;;;19.50;40.60;;;;;;5088506;28;20374;-64
2023/04/29 04:32:04;;;;;;;;;;;19.50;40.60;;;;;;5071773;28;19924;-63
2023/04/29 04:34:31;;;;;;;;;;;19.50;40.60;;;;;;5071742;28;19969;-63
2023/04/29 04:36:57;;;;;;;;;;;19.50;40.60;;;;;;5054553;28;20402;-63
2023/04/29 04:39:25;;;;;;;;;;;19.50;40.60;;;;;;5055065;28;19946;-63
2023/04/29 04:41:51;;;;;;;;;;;19.50;40.60;;;;;;5064093;28;19924;-63
2023/04/29 04:44:18;;;;;;;;;;;19.50;40.60;;;;;;5061442;28;19920;-63
2023/04/29 04:46:45;;;;;;;;;;;19.50;40.60;;;;;;5059927;28;19921;-64
2023/04/29 04:49:13;;;;;;;;;;;19.50;40.60;;;;;;5062248;28;19929;-63
2023/04/29 04:51:40;;;;;;;;;;;19.50;40.50;;;;;;5063198;28;19982;-64
2023/04/29 04:54:17;;;;;;;;;;;19.50;40.50;;;;;;5080288;28;19920;-63
2023/04/29 04:56:44;;;;;;;;;;;19.50;40.50;;;;;;5077365;28;19920;-64
2023/04/29 04:59:11;;;;;;;;;;;19.50;40.50;;;;;;5087380;28;19978;-64
2023/04/29 05:01:45;;;;;;;;;;;19.50;40.50;;;;;;5084126;28;19985;-64
2023/04/29 05:04:14;;;;;;;;;;;19.50;40.50;;;;;;5064766;28;19928;-64
2023/04/29 05:06:41;;;;;;;;;;;19.50;40.50;;;;;;5066959;28;20328;-63
2023/04/29 05:09:08;;;;;;;;;;;19.50;40.50;;;;;;5062521;28;20256;-63
2023/04/29 05:11:35;;;;;;;;;;;19.50;40.50;;;;;;5067157;28;19920;-63
2023/04/29 05:14:02;;;;;;;;;;;19.50;40.50;;;;;;5084479;28;19924;-63
2023/04/29 05:16:29;;;;;;;;;;;19.50;40.50;;;;;;5065364;28;19969;-64
2023/04/29 05:18:56;;;;;;;;;;;19.50;40.50;;;;;;5058681;28;20019;-64
2023/04/29 05:21:25;;;;;;;;;;;19.50;40.50;;;;;;5067054;28;19947;-64
2023/04/29 05:23:51;;;;;;;;;;;19.50;40.50;;;;;;5078327;28;19924;-63
2023/04/29 05:26:18;;;;;;;;;;;19.50;40.50;;;;;;5064574;28;19986;-62
2023/04/29 05:28:45;;;;;;;;;;;19.50;40.50;;;;;;5084140;28;20023;-64
2023/04/29 05:31:12;;;;;;;;;;;19.50;40.50;;;;;;5060939;28;19925;-65
2023/04/29 05:33:38;;;;;;;;;;;19.50;40.50;;;;;;5069049;28;19939;-64
2023/04/29 05:36:06;;;;;;;;;;;19.50;40.40;;;;;;5061448;28;19927;-62
2023/04/29 05:38:34;;;;;;;;;;;19.50;40.40;;;;;;5079619;28;19920;-64
2023/04/29 05:41:02;;;;;;;;;;;19.50;40.40;;;;;;5091050;28;19931;-64
2023/04/29 05:43:29;;;;;;;;;;;19.60;40.60;;;;;;5084513;28;19957;-63
2023/04/29 05:45:55;;;;;;;;;;;19.60;40.60;;;;;;5067742;28;19920;-63
2023/04/29 05:48:23;;;;;;;;;;;19.60;40.50;;;;;;5069144;28;19967;-64
2023/04/29 05:50:50;;;;;;;;;;;19.50;40.40;;;;;;5065673;28;19930;-63
2023/04/29 05:53:17;;;;;;;;;;;19.60;40.60;;;;;;5054845;28;19925;-63
2023/04/29 05:55:45;;;;;;;;;;;19.60;40.60;;;;;;5062449;28;19924;-63
2023/04/29 05:58:13;;;;;;;;;;;19.60;40.60;;;;;;5081945;28;19924;-63
2023/04/29 06:00:42;;;;;;;;;;;19.60;40.60;;;;;;5083056;28;19920;-63
2023/04/29 06:03:09;;;;;;;;;;;19.60;40.60;;;;;;5078103;28;19920;-63
2023/04/29 06:05:36;;;;;;;;;;;19.60;40.60;;;;;;5079372;28;20336;-63
2023/04/29 06:08:02;;;;;;;;;;;19.60;40.60;;;;;;5089876;28;19928;-63
2023/04/29 06:10:29;;;;;;;;;;;19.60;40.60;;;;;;5082180;28;19958;-62
2023/04/29 06:12:57;;;;;;;;;;;19.60;40.60;;;;;;5078785;28;19920;-63
2023/04/29 06:15:24;;;;;;;;;;;19.60;40.60;;;;;;5075864;28;19966;-63
2023/04/29 06:17:51;;;;;;;;;;;19.60;40.60;;;;;;5074809;28;19944;-61
2023/04/29 06:20:18;;;;;;;;;;;19.60;40.60;;;;;;5063626;28;19920;-63
2023/04/29 06:22:45;;;;;;;;;;;19.60;40.60;;;;;;5067156;28;20003;-63
2023/04/29 06:25:13;;;;;;;;;;;19.60;40.70;;;;;;5075262;28;19924;-63
2023/04/29 06:27:40;;;;;;;;;;;19.60;40.70;;;;;;5076132;28;19963;-64
2023/04/29 06:30:10;;;;;;;;;;;19.60;40.70;;;;;;5078702;28;19920;-64
2023/04/29 06:32:37;;;;;;;;;;;19.60;40.70;;;;;;5075868;28;19920;-64
2023/04/29 06:35:04;;;;;;;;;;;19.60;40.70;;;;;;5077961;28;19920;-64
2023/04/29 06:37:30;;;;;;;;;;;19.60;40.70;;;;;;5075733;28;19973;-64
2023/04/29 06:39:57;;;;;;;;;;;19.60;40.70;;;;;;5077919;28;19927;-64
2023/04/29 06:42:24;;;;;;;;;;;19.60;40.70;;;;;;5056946;28;19950;-63
2023/04/29 06:44:51;;;;;;;;;;;19.60;40.70;;;;;;5059633;28;19924;-64
2023/04/29 06:47:19;;;;;;;;;;;19.60;40.80;;;;;;5093392;28;19920;-64
2023/04/29 06:49:48;;;;;;;;;;;19.60;40.80;;;;;;5094092;28;19966;-65
2023/04/29 06:52:15;;;;;;;;;;;19.60;40.80;;;;;;5073667;28;19926;-65
2023/04/29 06:54:42;;;;;;;;;;;19.60;40.80;;;;;;5074137;28;20313;-65
2023/04/29 06:57:08;;;;;;;;;;;19.60;40.80;;;;;;5062236;28;19927;-64
2023/04/29 06:59:35;;;;;;;;;;;19.60;40.80;;;;;;5055179;28;19966;-64
2023/04/29 07:02:02;;;;;;;;;;;19.60;40.80;;;;;;5078320;28;20308;-65
2023/04/29 07:04:30;;;;;;;;;;;19.60;40.80;;;;;;5078483;28;19920;-64
2023/04/29 07:06:58;;;;;;;;;;;19.60;40.80;;;;;;5085753;28;19965;-64
2023/04/29 07:09:26;;;;;;;;;;;19.60;40.80;;;;;;5077456;28;20423;-64
2023/04/29 07:11:54;;;;;;;;;;;19.60;40.80;;;;;;5077323;28;19966;-64
2023/04/29 07:14:22;;;;;;;;;;;19.60;40.80;;;;;;5080841;28;20302;-64
2023/04/29 07:16:52;;;;;;;;;;;19.60;40.80;;;;;;5076728;28;19945;-64
2023/04/29 07:19:19;;;;;;;;;;;19.60;40.80;;;;;;5086386;28;20296;-64
2023/04/29 07:21:47;;;;;;;;;;;19.60;40.80;;;;;;5092965;28;19968;-64
2023/04/29 07:24:14;;;;;;;;;;;19.60;40.90;;;;;;5065611;28;19965;-63
2023/04/29 07:26:42;;;;;;;;;;;19.60;40.90;;;;;;5063171;28;19927;-63
2023/04/29 07:29:09;;;;;;;;;;;19.60;40.80;;;;;;5086870;28;19924;-63
2023/04/29 07:31:36;;;;;;;;;;;19.60;40.90;;;;;;5083683;28;19924;-64
2023/04/29 07:34:03;;;;;;;;;;;19.60;40.90;;;;;;5084870;28;19924;-63
2023/04/29 07:36:30;;;;;;;;;;;19.60;40.90;;;;;;5052800;28;19925;-63
2023/04/29 07:38:58;;;;;;;;;;;19.60;40.90;;;;;;5070864;28;19967;-62
2023/04/29 07:41:35;;;;;;;;;;;19.60;40.90;;;;;;5087113;28;19912;-61
2023/04/29 07:44:02;;;;;;;;;;;19.60;40.90;;;;;;5103128;28;20024;-61
2023/04/29 07:46:30;;;;;;;;;;;19.60;40.90;;;;;;5092951;28;19925;-61
2023/04/29 07:48:57;;;;;;;;;;;19.60;40.90;;;;;;5086727;28;20370;-62
2023/04/29 07:51:27;;;;;;;;;;;19.60;40.90;;;;;;5087335;28;19939;-62
2023/04/29 07:53:54;;;;;;;;;;;19.60;41.00;;;;;;5083385;28;19924;-62
2023/04/29 07:56:22;;;;;;;;;;;19.60;41.00;;;;;;5079683;28;19931;-61
2023/04/29 07:58:50;;;;;;;;;;;19.60;40.90;;;;;;5101973;28;19924;-62
2023/04/29 08:01:23;;;;;;;;;;;19.60;40.90;;;;;;5093109;28;19920;-62
2023/04/29 08:03:50;;;;;;;;;;;19.60;40.90;;;;;;5086073;28;19920;-62
2023/04/29 08:06:19;;;;;;;;;;;19.60;40.90;;;;;;5084687;28;19925;-62
2023/04/29 08:08:46;;;;;;;;;;;19.60;40.90;;;;;;5100560;28;19928;-62
2023/04/29 08:11:16;;;;;;;;;;;19.60;40.80;;;;;;5101550;28;19935;-62
2023/04/29 08:13:43;;;;;;;;;;;19.60;40.80;;;;;;5099742;28;19920;-62
2023/04/29 08:16:12;;;;;;;;;;;19.60;40.80;;;;;;5084873;28;19921;-62
2023/04/29 08:18:38;;;;;;;;;;;19.60;40.80;;;;;;5081343;28;19924;-60
2023/04/29 08:21:05;;;;;;;;;;;19.60;40.80;;;;;;5082747;28;19989;-61
2023/04/29 08:23:33;;;;;;;;;;;19.60;40.90;;;;;;5084190;28;19924;-63
2023/04/29 08:26:00;;;;;;;;;;;19.60;40.90;;;;;;5099481;28;19942;-62
2023/04/29 08:28:26;;;;;;;;;;;19.60;40.90;;;;;;5100942;28;19920;-61
2023/04/29 08:30:54;;;;;;;;;;;19.60;40.90;;;;;;5084010;28;20006;-63
2023/04/29 08:33:22;;;;;;;;;;;19.60;40.90;;;;;;5101083;28;19921;-61
2023/04/29 08:35:49;;;;;;;;;;;19.60;41.00;;;;;;5100908;28;19920;-63
2023/04/29 08:38:15;;;;;;;;;;;19.60;41.00;;;;;;5101123;28;20018;-61
2023/04/29 08:40:45;;;;;;;;;;;19.60;41.00;;;;;;5100118;28;19924;-61
2023/04/29 08:43:15;;;;;;;;;;;19.60;41.00;;;;;;5098390;28;19926;-61
2023/04/29 08:45:42;;;;;;;;;;;19.60;41.10;;;;;;5106683;28;19920;-63
2023/04/29 08:48:09;;;;;;;;;;;19.70;41.20;;;;;;5106028;28;19920;-62
2023/04/29 08:50:38;;;;;;;;;;;19.70;41.30;;;;;;5106174;28;19932;-58
2023/04/29 08:53:05;;;;;;;;;;;19.70;41.30;;;;;;5092019;28;19920;-58
2023/04/29 08:55:31;;;;;;;;;;;19.70;41.90;;;;;;5092524;28;19927;-58
2023/04/29 08:57:58;;;;;;;;;;;19.70;41.40;;;;;;5091943;28;19920;-58
2023/04/29 09:00:25;;;;;;;;;;;19.70;41.50;;;;;;5091951;28;20381;-59
2023/04/29 09:02:53;;;;;;;;;;;19.70;41.50;;;;;;5092264;28;19920;-58
2023/04/29 09:05:20;;;;;;;;;;;19.70;41.50;;;;;;5091900;28;19920;-58
2023/04/29 09:07:48;;;;;;;;;;;19.70;41.50;;;;;;5087529;28;19920;-58
2023/04/29 09:10:15;;;;;;;;;;;19.70;41.60;;;;;;5055537;28;20381;-58
2023/04/29 09:12:42;;;;;;;;;;;19.70;41.60;;;;;;5071289;28;19921;-59
2023/04/29 09:15:09;;;;;;;;;;;19.70;41.60;;;;;;5072415;28;19928;-58
2023/04/29 09:17:41;;;;;;;;;;;19.70;41.30;;;;;;5071541;28;20054;-59
2023/04/29 09:20:22;;;;;;;;;;;19.70;40.90;;;;;;5055890;28;19946;-60
2023/04/29 09:22:51;;;;;;;;;;;19.70;40.70;;;;;;5055643;28;20271;-60
2023/04/29 09:25:18;;;;;;;;;;;19.70;40.50;;;;;;5055933;28;19920;-60
2023/04/29 09:27:44;;;;;;;;;;;19.70;40.40;;;;;;5071943;28;19921;-59
2023/04/29 09:30:12;;;;;;;;;;;19.70;40.30;;;;;;5056185;28;20347;-58
2023/04/29 09:32:39;;;;;;;;;;;19.60;40.20;;;;;;5071819;28;20027;-59
2023/04/29 09:35:21;;;;;;;;;;;19.60;40.20;;;;;;5071175;28;19920;-59
2023/04/29 09:37:48;;;;;;;;;;;19.60;40.20;;;;;;5055305;28;19921;-59
2023/04/29 09:40:30;;;;;;;;;;;19.60;40.20;;;;;;5065028;28;19928;-59
2023/04/29 09:42:58;;;;;;;;;;;19.60;40.20;;;;;;5089502;28;19951;-60
2023/04/29 09:45:35;;;;;;;;;;;19.60;40.20;;;;;;5072481;28;19950;-60
2023/04/29 09:48:03;;;;;;;;;;;19.60;40.20;;;;;;5089789;28;19924;-59
2023/04/29 09:50:30;;;;;;;;;;;19.60;40.20;;;;;;5089370;28;19920;-61
2023/04/29 09:52:57;;;;;;;;;;;19.60;40.20;;;;;;5089980;28;19928;-60
2023/04/29 09:55:23;;;;;;;;;;;19.60;40.20;;;;;;5091128;28;19973;-60
2023/04/29 09:57:50;;;;;;;;;;;19.50;40.10;;;;;;5090542;28;19920;-60
2023/04/29 10:00:18;;;;;;;;;;;19.60;40.10;;;;;;5089505;28;19927;-59
2023/04/29 10:02:46;;;;;;;;;;;19.60;40.10;;;;;;5087748;28;19954;-60
2023/04/29 10:05:12;;;;;;;;;;;19.50;40.00;;;;;;5072516;28;19935;-60
2023/04/29 10:07:39;;;;;;;;;;;19.50;40.00;;;;;;5090377;28;19920;-62
2023/04/29 10:10:07;;;;;;;;;;;19.50;40.00;;;;;;5089199;28;19961;-61
2023/04/29 10:12:34;;;;;;;;;;;19.60;40.10;;;;;;5090121;28;19923;-61
2023/04/29 10:15:02;;;;;;;;;;;19.50;40.00;;;;;;5089497;28;19927;-61
2023/04/29 10:17:33;;;;;;;;;;;19.50;40.00;;;;;;5088629;28;19920;-61
2023/04/29 10:20:04;;;;;;;;;;;19.50;40.00;;;;;;5063683;28;20255;-60
2023/04/29 10:22:33;;;;;;;;;;;19.50;40.00;;;;;;5090173;28;19920;-60
2023/04/29 10:25:00;;;;;;;;;;;19.50;40.00;;;;;;5090211;28;19924;-60
2023/04/29 10:27:27;;;;;;;;;;;19.50;40.00;;;;;;5064828;28;19921;-60
2023/04/29 10:29:54;;;;;;;;;;;19.50;40.00;;;;;;5071949;28;20607;-60
2023/04/29 10:32:21;;;;;;;;;;;19.50;39.90;;;;;;5071958;28;19971;-63
2023/04/29 10:34:49;;;;;;;;;;;19.50;39.90;;;;;;5088376;28;20433;-61
2023/04/29 10:37:16;;;;;;;;;;;19.50;39.90;;;;;;5088736;28;19931;-61
2023/04/29 10:39:45;;;;;;;;;;;19.50;39.90;;;;;;5089373;28;19927;-60
2023/04/29 10:42:16;;;;;;;;;;;19.50;39.80;;;;;;5071854;28;20392;-59
2023/04/29 10:44:58;;;;;;;;;;;19.50;40.30;;;;;;5070423;28;19965;-60
2023/04/29 10:47:24;;;;;;;;;;;19.50;39.60;;;;;;5086878;28;19924;-62
2023/04/29 10:50:06;;;;;;;;;;;19.50;39.60;;;;;;5090134;28;19924;-60
2023/04/29 10:52:48;;;;;;;;;;;19.50;39.50;;;;;;5089472;28;19951;-60
2023/04/29 10:55:15;;;;;;;;;;;19.50;39.50;;;;;;5063526;28;19975;-61
2023/04/29 10:57:42;;;;;;;;;;;19.50;39.40;;;;;;5070617;28;19928;-60
2023/04/29 11:00:09;;;;;;;;;;;19.50;39.40;;;;;;5086284;28;19926;-61
2023/04/29 11:02:35;;;;;;;;;;;19.50;39.40;;;;;;5070080;28;20305;-61
2023/04/29 11:05:11;;;;;;;;;;;19.50;39.30;;;;;;5087462;28;19936;-61
2023/04/29 11:07:37;;;;;;;;;;;19.50;39.40;;;;;;5070887;28;20014;-60
2023/04/29 11:10:05;;;;;;;;;;;19.50;39.30;;;;;;5070774;28;19928;-62
2023/04/29 11:12:32;;;;;;;;;;;19.50;39.30;;;;;;5070571;28;19926;-60
2023/04/29 11:15:02;;;;;;;;;;;19.50;39.40;;;;;;5088909;28;19989;-60
2023/04/29 11:17:35;;;;;;;;;;;19.50;39.40;;;;;;5080510;28;19959;-59
2023/04/29 11:20:01;;;;;;;;;;;19.50;39.40;;;;;;5064786;28;19924;-60
2023/04/29 11:22:32;;;;;;;;;;;19.50;39.40;;;;;;5067027;28;19924;-60
2023/04/29 11:25:00;;;;;;;;;;;19.50;39.50;;;;;;5069793;28;19920;-61
2023/04/29 11:27:27;;;;;;;;;;;19.50;39.50;;;;;;5089346;28;19924;-61
2023/04/29 11:29:57;;;;;;;;;;;19.50;39.50;;;;;;5070954;28;20296;-60
2023/04/29 11:32:24;;;;;;;;;;;19.50;39.50;;;;;;5080022;28;19927;-60
2023/04/29 11:34:51;;;;;;;;;;;19.50;39.50;;;;;;5087781;28;20019;-61
2023/04/29 11:37:24;;;;;;;;;;;19.50;39.50;;;;;;5086063;28;19928;-60
2023/04/29 11:39:53;;;;;;;;;;;19.50;39.60;;;;;;5085932;28;19964;-61
2023/04/29 11:42:20;;;;;;;;;;;19.50;39.60;;;;;;5070248;28;19951;-61
2023/04/29 11:44:47;;;;;;;;;;;19.50;39.60;;;;;;5089158;28;19924;-61
2023/04/29 11:47:14;;;;;;;;;;;19.50;39.60;;;;;;5087790;28;19924;-60
2023/04/29 11:49:41;;;;;;;;;;;19.50;39.60;;;;;;5081546;28;19920;-60
2023/04/29 11:52:08;;;;;;;;;;;19.50;39.60;;;;;;5086142;28;19921;-60
2023/04/29 11:54:35;;;;;;;;;;;19.60;39.70;;;;;;5087574;28;19970;-60
2023/04/29 11:57:04;;;;;;;;;;;19.50;39.60;;;;;;5087780;28;19920;-61
2023/04/29 11:59:31;;;;;;;;;;;19.60;39.70;;;;;;5087868;28;19973;-59
2023/04/29 12:01:58;;;;;;;;;;;19.60;39.70;;;;;;5087044;28;20334;-60
2023/04/29 12:04:24;;;;;;;;;;;19.60;39.70;;;;;;5085934;28;20358;-60
2023/04/29 12:06:51;;;;;;;;;;;19.60;39.70;;;;;;5085892;28;20062;-60
2023/04/29 12:09:18;;;;;;;;;;;19.60;39.70;;;;;;5087503;28;19924;-60
2023/04/29 12:11:45;;;;;;;;;;;19.60;39.80;;;;;;5088317;28;19920;-60
2023/04/29 12:14:14;;;;;;;;;;;19.60;39.80;;;;;;5089249;28;19924;-62
2023/04/29 12:16:40;;;;;;;;;;;19.60;39.80;;;;;;5087091;28;20303;-60
2023/04/29 12:19:09;;;;;;;;;;;19.60;39.80;;;;;;5088451;28;19928;-60
2023/04/29 12:21:36;;;;;;;;;;;19.60;39.80;;;;;;5067975;28;19920;-60
2023/04/29 12:24:03;;;;;;;;;;;19.60;39.80;;;;;;5085763;28;19932;-60
2023/04/29 12:26:30;;;;;;;;;;;19.60;39.90;;;;;;5071062;28;19920;-60
2023/04/29 12:28:57;;;;;;;;;;;19.60;39.80;;;;;;5091103;28;19969;-60
2023/04/29 12:31:29;;;;;;;;;;;19.60;39.90;;;;;;5090836;28;19920;-60
2023/04/29 12:33:56;;;;;;;;;;;19.60;39.90;;;;;;5088699;28;19955;-59
2023/04/29 12:36:23;;;;;;;;;;;19.60;39.90;;;;;;5091147;28;19924;-62
2023/04/29 12:38:49;;;;;;;;;;;19.60;39.90;;;;;;5068367;28;19928;-61
2023/04/29 12:41:20;;;;;;;;;;;19.60;39.90;;;;;;5073309;28;19940;-61
2023/04/29 12:43:46;;;;;;;;;;;19.60;39.90;;;;;;5090582;28;19973;-59
2023/04/29 12:46:13;;;;;;;;;;;19.60;39.90;;;;;;5089385;28;20001;-60
2023/04/29 12:48:42;;;;;;;;;;;19.60;39.90;;;;;;5071978;28;20027;-59
2023/04/29 12:51:09;;;;;;;;;;;19.60;39.90;;;;;;5090581;28;19932;-62
2023/04/29 12:53:36;;;;;;;;;;;19.60;40.00;;;;;;5074004;28;19969;-61
2023/04/29 12:56:02;;;;;;;;;;;19.60;40.00;;;;;;5087915;28;19927;-60
2023/04/29 12:58:33;;;;;;;;;;;19.60;40.00;;;;;;5090593;28;19938;-60
2023/04/29 13:00:59;;;;;;;;;;;19.70;40.00;;;;;;5090522;28;19924;-60
2023/04/29 13:03:27;;;;;;;;;;;19.70;40.10;;;;;;5073403;28;20341;-60
2023/04/29 13:05:55;;;;;;;;;;;19.70;40.10;;;;;;5073568;28;20230;-60
2023/04/29 13:08:21;;;;;;;;;;;19.70;40.10;;;;;;5090541;28;19920;-61
2023/04/29 13:10:48;;;;;;;;;;;19.60;40.00;;;;;;5089985;28;20014;-59
2023/04/29 13:13:15;;;;;;;;;;;19.60;39.90;;;;;;5073164;28;19959;-60
2023/04/29 13:15:42;;;;;;;;;;;19.60;39.70;;;;;;5090112;28;19923;-59
2023/04/29 13:18:09;;;;;;;;;;;19.60;39.50;;;;;;5090153;28;19928;-60
2023/04/29 13:20:35;;;;;;;;;;;19.60;39.40;;;;;;5073550;28;19923;-60
2023/04/29 13:23:03;;;;;;;;;;;19.60;39.30;;;;;;5073532;28;19951;-60
2023/04/29 13:25:30;;;;;;;;;;;19.60;39.10;;;;;;5090145;28;19920;-61
2023/04/29 13:27:57;;;;;;;;;;;19.60;38.90;;;;;;5090999;28;19932;-60
2023/04/29 13:30:24;;;;;;;;;;;19.60;38.90;;;;;;5072060;28;19923;-60
2023/04/29 13:32:51;;;;;;;;;;;19.60;38.90;;;;;;5090113;28;19930;-60
2023/04/29 13:35:18;;;;;;;;;;;19.60;38.90;;;;;;5090614;28;19920;-60
2023/04/29 13:37:45;;;;;;;;;;;19.50;38.70;;;;;;5089726;28;19961;-60
2023/04/29 13:40:13;;;;;;;;;;;19.60;38.80;;;;;;5089280;28;20424;-60
2023/04/29 13:42:40;;;;;;;;;;;19.50;38.70;;;;;;5089111;28;19931;-61
2023/04/29 13:45:07;;;;;;;;;;;19.50;38.80;;;;;;5091034;28;19942;-60
2023/04/29 13:47:35;;;;;;;;;;;19.50;38.70;;;;;;5088822;28;19924;-60
2023/04/29 13:50:02;;;;;;;;;;;19.50;38.70;;;;;;5091087;28;19924;-60
2023/04/29 13:52:30;;;;;;;;;;;19.50;38.70;;;;;;5089823;28;19931;-61
2023/04/29 13:54:56;;;;;;;;;;;19.50;38.70;;;;;;5072916;28;20027;-60
2023/04/29 13:57:26;;;;;;;;;;;19.50;38.60;;;;;;5088878;28;19965;-60
2023/04/29 13:59:54;;;;;;;;;;;19.50;38.60;;;;;;5089364;28;19920;-60
2023/04/29 14:02:23;;;;;;;;;;;19.50;38.60;;;;;;5089521;28;20362;-60
2023/04/29 14:04:50;;;;;;;;;;;19.50;38.50;;;;;;5074237;28;19920;-60
2023/04/29 14:07:17;;;;;;;;;;;19.50;38.50;;;;;;5092866;28;20355;-60
2023/04/29 14:09:43;;;;;;;;;;;19.50;38.40;;;;;;5074423;28;19977;-60
2023/04/29 14:12:10;;;;;;;;;;;19.50;38.40;;;;;;5093131;28;20369;-60
2023/04/29 14:14:38;;;;;;;;;;;19.50;38.30;;;;;;5094079;28;19920;-59
2023/04/29 14:17:05;;;;;;;;;;;19.50;38.30;;;;;;5094451;28;19953;-60
2023/04/29 14:19:33;;;;;;;;;;;19.60;38.40;;;;;;5086476;28;19924;-60